Terminal Aerodrome Forecast
Issued by NWS

Home | Current Version | Previous Version | Text Only | Print | Product List | Glossary On
Versions: 1 2 3 4 5 6 7 8 9 10 11 12 13 14 15 16 17 18 19 20 21 22
000
FTUS44 KBMX 260520
TAFEET
TAF
KEET 260520Z 2606/2706 00000KT 6SM BR OVC003
      TEMPO 2606/2608 3SM BR
     FM260800 00000KT 2SM BR OVC003
      TEMPO 2610/2613 1SM BR
     FM261400 20003KT 6SM BR OVC007
     FM261500 19003KT P6SM OVC015
     FM261800 18006KT P6SM VCSH BKN045 PROB30 2619/2701 6SM TSRA BR
      BKN035CB
     FM270200 00000KT P6SM BKN250=

USA.gov is the U.S. government's official web portal to all federal, state and local government web resources and services.